Time;durP1;ratioP1;P1;durP2;ratioP2;P2;SDS_P1;SDS_P2;PMS_P1;PMS_P2;Temp;Humidity;BMP_temperature;BMP_pressure;BME280_temperature;BME280_humidity;BME280_pressure;Samples;Min_cycle;Max_cycle;Signal;HPM_P1;HPM_P2
2022/01/23 00:02:29;;;;;;;13.73;4.78;;;;;;;-3.83;78.59;97218.56;5066170;28;20461;-63
2022/01/23 00:04:56;;;;;;;10.00;4.75;;;;;;;-3.75;74.69;97215.31;5067461;28;20052;-63
2022/01/23 00:07:22;;;;;;;11.07;4.68;;;;;;;-3.75;74.61;97216.13;5067081;28;20048;-61
2022/01/23 00:09:49;;;;;;;9.45;3.78;;;;;;;-4.59;75.13;97084.63;5066979;28;20068;-60
2022/01/23 00:12:19;;;;;;;10.85;3.72;;;;;;;-4.23;75.69;97134.81;5066673;28;20057;-64
2022/01/23 00:17:35;;;;;;;14.85;4.07;;;;;;;-3.68;72.24;97199.56;5066961;28;20487;-60
2022/01/23 00:20:11;;;;;;;5.63;1.98;;;;;;;-3.57;66.10;97206.56;5067403;28;20304;-60
2022/01/23 00:22:45;;;;;;;7.10;2.45;;;;;;;-3.34;61.98;97206.75;5082993;28;20040;-63
2022/01/23 00:30:45;;;;;;;4.38;1.80;;;;;;;-3.29;63.90;97205.91;5086486;28;20052;-60
2022/01/23 00:33:14;;;;;;;4.80;1.50;;;;;;;-3.23;62.29;97189.38;5087222;28;20056;-63
2022/01/23 00:35:43;;;;;;;6.72;1.42;;;;;;;-3.33;63.19;97180.47;5087102;28;20181;-60
2022/01/23 00:38:11;;;;;;;4.43;1.80;;;;;;;-3.56;58.47;97122.41;5087397;28;20052;-60
2022/01/23 00:40:40;;;;;;;5.38;2.25;;;;;;;-2.95;59.31;97195.97;5085619;28;20059;-63
2022/01/23 00:43:15;;;;;;;7.82;2.42;;;;;;;-3.00;60.41;97195.19;5086812;28;20533;-63
2022/01/23 00:45:46;;;;;;;6.35;1.85;;;;;;;-3.11;59.94;97199.84;5086828;28;20560;-60
2022/01/23 00:48:13;;;;;;;4.28;1.13;;;;;;;-3.40;60.42;97142.09;5085502;28;20056;-60
2022/01/23 00:50:45;;;;;;;3.53;2.08;;;;;;;-2.94;60.33;97192.16;5086097;28;20059;-62
2022/01/23 00:53:13;;;;;;;6.05;2.33;;;;;;;-3.10;59.89;97174.41;5086774;28;20057;-63
2022/01/23 00:55:43;;;;;;;6.38;2.15;;;;;;;-2.94;57.99;97210.34;5085849;28;20052;-60
2022/01/23 00:58:10;;;;;;;4.13;1.63;;;;;;;-3.06;59.30;97202.53;5086683;28;20056;-63
2022/01/23 01:00:38;;;;;;;4.63;2.40;;;;;;;-3.07;60.15;97228.00;5086336;28;20407;-60
2022/01/23 01:03:05;;;;;;;9.45;2.45;;;;;;;-3.12;59.49;97214.50;5084693;28;20055;-61
2022/01/23 01:05:32;;;;;;;4.75;1.33;;;;;;;-3.18;60.67;97219.13;5086283;28;20173;-63
2022/01/23 01:08:01;;;;;;;7.28;2.08;;;;;;;-3.88;63.06;97148.25;5086278;28;20056;-60
2022/01/23 01:10:47;;;;;;;6.45;2.13;;;;;;;-3.40;62.86;97229.50;5085749;28;20056;-60
2022/01/23 01:13:14;;;;;;;5.35;1.85;;;;;;;-3.72;61.16;97176.88;5086364;28;20428;-60
2022/01/23 01:16:00;;;;;;;5.60;1.85;;;;;;;-3.82;60.04;97157.97;5085887;28;20052;-61
2022/01/23 01:32:24;;;;;;;6.57;1.73;;;;;;;-3.48;60.38;97253.66;5065491;28;20048;-60
2022/01/23 01:35:02;;;;;;;5.45;2.42;;;;;;;-3.91;60.23;97192.06;5064136;28;20060;-60
2022/01/23 01:37:28;;;;;;;7.38;2.35;;;;;;;-3.73;60.80;97213.16;5064115;28;20044;-60
2022/01/23 01:39:55;;;;;;;7.65;2.40;;;;;;;-3.61;61.51;97254.22;5064651;28;20519;-63
2022/01/23 01:42:22;;;;;;;6.95;2.53;;;;;;;-3.69;61.24;97250.19;5064264;28;20062;-63
2022/01/23 01:44:48;;;;;;;7.18;2.45;;;;;;;-3.92;61.79;97214.81;5065347;28;20060;-60
2022/01/23 01:47:15;;;;;;;6.60;3.10;;;;;;;-3.65;62.52;97253.97;5064871;28;20048;-63
2022/01/23 01:49:46;;;;;;;12.55;4.30;;;;;;;-3.74;63.68;97257.50;5064997;28;20052;-60
2022/01/23 01:52:13;;;;;;;14.88;4.53;;;;;;;-4.11;64.79;97270.56;5064786;28;20499;-63
2022/01/23 01:54:40;;;;;;;14.45;4.55;;;;;;;-4.30;66.36;97262.16;5064994;28;20067;-61
2022/01/23 01:57:09;;;;;;;28.73;10.82;;;;;;;-4.23;65.66;97245.66;5063436;28;20500;-63
2022/01/23 01:59:48;;;;;;;15.00;5.65;;;;;;;-4.28;65.38;97245.69;5063782;28;20044;-60
2022/01/23 02:10:56;;;;;;;16.65;5.32;;;;;;;-4.33;65.78;97262.72;5057042;28;20111;-61
2022/01/23 02:56:56;;;;;;;5.70;2.05;;;;;;;-4.27;62.18;97244.59;5084083;28;20051;-60
2022/01/23 02:59:26;;;;;;;17.80;5.15;;;;;;;-4.37;62.91;97258.13;5082460;28;20526;-61
2022/01/23 03:04:33;;;;;;;9.35;3.50;;;;;;;-5.65;66.72;97111.63;5084566;28;20587;-60
2022/01/23 03:07:36;;;;;;;10.20;3.72;;;;;;;-4.54;66.91;97288.13;5084221;28;20054;-61
2022/01/23 03:10:08;;;;;;;9.60;4.75;;;;;;;-5.18;67.60;97217.50;5083930;28;20048;-62
2022/01/23 03:13:25;;;;;;;15.75;5.05;;;;;;;-5.01;67.50;97234.28;5083436;28;20519;-63
2022/01/23 03:26:49;;;;;;;24.10;7.38;;;;;;;-5.06;68.57;97252.38;5063476;28;20049;-62
2022/01/23 03:29:22;;;;;;;67.78;17.83;;;;;;;-4.80;68.86;97295.38;5064036;28;20063;-64
2022/01/23 03:34:20;;;;;;;17.20;5.78;;;;;;;-5.32;69.79;97302.75;5063049;28;20053;-63
2022/01/23 03:36:47;;;;;;;26.85;7.55;;;;;;;-5.93;69.53;97211.03;5061273;28;20447;-64
2022/01/23 03:39:14;;;;;;;17.73;6.32;;;;;;;-5.72;71.05;97288.25;5063799;28;20059;-60
2022/01/23 03:41:42;;;;;;;13.00;5.25;;;;;;;-5.62;70.63;97313.38;5063515;28;20068;-60
2022/01/23 03:44:11;;;;;;;17.95;6.70;;;;;;;-5.83;70.40;97287.41;5062519;28;20507;-62
2022/01/23 03:49:31;;;;;;;17.35;6.13;;;;;;;-6.13;72.11;97230.59;5063040;28;20060;-60
2022/01/23 03:52:08;;;;;;;16.45;4.45;;;;;;;-6.01;72.68;97304.00;5062918;28;20060;-60
2022/01/23 03:54:36;;;;;;;25.08;7.63;;;;;;;-5.96;72.33;97295.97;5062137;28;20053;-64
2022/01/23 03:57:05;;;;;;;17.33;5.90;;;;;;;-6.21;73.11;97276.91;5063168;28;20056;-64
2022/01/23 03:59:32;;;;;;;20.58;8.13;;;;;;;-6.01;73.36;97298.63;5062413;28;20056;-63
2022/01/23 04:01:59;;;;;;;22.40;10.00;;;;;;;-6.39;74.08;97242.28;5063218;28;20049;-64
2022/01/23 04:04:40;;;;;;;31.95;10.75;;;;;;;-6.31;73.33;97266.06;5063158;28;20067;-64
2022/01/23 04:07:13;;;;;;;22.85;8.43;;;;;;;-5.99;73.84;97318.03;5061690;28;20052;-64
2022/01/23 04:09:41;;;;;;;30.30;9.25;;;;;;;-5.93;74.27;97317.00;5062771;28;20565;-61
2022/01/23 04:12:12;;;;;;;27.42;8.00;;;;;;;-6.13;73.72;97289.88;5062801;28;20099;-60
2022/01/23 04:14:47;;;;;;;32.75;12.15;;;;;;;-6.47;74.35;97293.94;5062310;28;20052;-59
2022/01/23 04:20:38;;;;;;;29.15;13.20;;;;;;;-6.10;73.96;97310.94;5063008;28;20055;-60
2022/01/23 05:00:35;;;;;;;95.68;31.70;;;;;;;-6.16;73.92;97306.59;5086784;28;20474;-68
2022/01/23 05:05:33;;;;;;;124.60;38.83;;;;;;;-6.39;73.60;97263.84;5086003;28;20550;-69
2022/01/23 05:08:04;;;;;;;143.77;43.75;;;;;;;-6.17;73.10;97310.34;5086664;28;20062;-62
2022/01/23 05:10:31;;;;;;;122.00;41.05;;;;;;;-5.88;73.91;97351.28;5086347;28;20056;-64
2022/01/23 05:12:58;;;;;;;77.57;28.58;;;;;;;-5.82;74.46;97356.47;5084727;28;20052;-67
2022/01/23 05:15:25;;;;;;;55.10;21.38;;;;;;;-6.64;74.51;97250.16;5086102;28;20522;-62
2022/01/23 05:17:52;;;;;;;41.40;12.57;;;;;;;-6.29;75.67;97369.00;5086318;28;20349;-69
2022/01/23 05:20:20;;;;;;;40.22;15.30;;;;;;;-6.20;74.97;97347.78;5084083;28;20047;-68
2022/01/23 05:22:50;;;;;;;26.95;9.13;;;;;;;-6.47;76.32;97327.09;5070024;28;20059;-62
2022/01/23 05:25:27;;;;;;;22.00;9.40;;;;;;;-6.09;75.95;97382.66;5065486;28;20061;-62
2022/01/23 05:27:54;;;;;;;20.52;6.18;;;;;;;-6.19;76.86;97387.94;5065335;28;20053;-63
2022/01/23 05:30:22;;;;;;;17.85;7.13;;;;;;;-6.32;77.15;97342.56;5065179;28;20059;-66
2022/01/23 05:32:50;;;;;;;50.35;13.80;;;;;;;-6.13;77.39;97376.16;5065442;28;20518;-61
2022/01/23 05:35:18;;;;;;;25.98;7.57;;;;;;;-6.54;77.79;97326.47;5065204;28;20515;-67
2022/01/23 05:37:45;;;;;;;12.75;5.15;;;;;;;-6.18;78.52;97386.91;5063746;28;20055;-63
2022/01/23 05:40:14;;;;;;;23.38;7.72;;;;;;;-6.08;77.92;97378.06;5065733;28;20063;-68
2022/01/23 05:42:42;;;;;;;31.25;10.02;;;;;;;-6.58;77.25;97329.94;5065434;28;20510;-64
2022/01/23 05:45:10;;;;;;;45.88;17.80;;;;;;;-6.68;77.56;97308.28;5063971;28;20051;-63
2022/01/23 05:47:36;;;;;;;23.17;8.55;;;;;;;-6.06;78.41;97401.03;5063728;28;20060;-63
2022/01/23 05:50:07;;;;;;;20.83;6.40;;;;;;;-5.92;78.74;97386.03;5064895;28;20094;-62
2022/01/23 05:52:34;;;;;;;16.98;6.63;;;;;;;-6.04;78.46;97369.22;5063813;28;20056;-69
2022/01/23 05:55:02;;;;;;;24.85;5.47;;;;;;;-5.88;79.41;97406.00;5065207;28;20067;-67
2022/01/23 05:57:28;;;;;;;19.60;7.28;;;;;;;-6.01;78.91;97330.97;5065467;28;20055;-63
2022/01/23 05:59:55;;;;;;;44.83;16.00;;;;;;;-5.39;77.85;97404.72;5064341;28;20052;-68
2022/01/23 06:02:22;;;;;;;44.38;17.40;;;;;;;-5.54;77.02;97339.88;5065017;28;20577;-61
2022/01/23 06:04:49;;;;;;;34.65;16.00;;;;;;;-4.90;76.61;97410.69;5065061;28;20124;-63
2022/01/23 06:07:15;;;;;;;52.25;16.85;;;;;;;-4.74;76.49;97423.16;5063457;28;20044;-69
2022/01/23 06:09:42;;;;;;;62.35;20.65;;;;;;;-5.05;75.88;97346.59;5063389;28;20055;-68
2022/01/23 06:12:09;;;;;;;163.38;47.78;;;;;;;-7.42;75.44;96941.44;5064349;28;20068;-68
2022/01/23 06:14:36;;;;;;;31.63;11.73;;;;;;;-4.41;75.51;97390.28;5064813;28;20055;-67
2022/01/23 06:17:03;;;;;;;35.08;13.85;;;;;;;-4.71;75.30;97341.59;5064765;28;20509;-67
2022/01/23 06:19:30;;;;;;;37.25;13.48;;;;;;;-4.00;74.37;97388.47;5063521;28;20135;-68
2022/01/23 06:21:56;;;;;;;63.80;24.10;;;;;;;-3.60;73.26;97412.81;5072400;28;20059;-64
2022/01/23 06:24:25;;;;;;;66.20;25.77;;;;;;;-3.26;71.45;97403.06;5084670;28;20048;-62
2022/01/23 06:26:54;;;;;;;52.08;20.95;;;;;;;-3.10;70.72;97404.66;5084243;28;20052;-61
2022/01/23 06:29:23;;;;;;;36.88;16.58;;;;;;;-3.12;70.98;97409.53;5083378;28;20058;-62
2022/01/23 06:31:50;;;;;;;74.07;28.75;;;;;;;-3.07;70.63;97395.97;5083020;28;20056;-68
2022/01/23 06:34:18;;;;;;;37.28;13.60;;;;;;;-2.94;69.28;97384.53;5084745;28;20056;-67
2022/01/23 06:36:48;;;;;;;41.47;13.80;;;;;;;-2.72;67.43;97435.69;5084440;28;20055;-64
2022/01/23 06:39:15;;;;;;;56.35;21.35;;;;;;;-2.50;68.82;97423.41;5084484;28;20059;-62
2022/01/23 06:41:46;;;;;;;50.72;19.75;;;;;;;-2.34;68.75;97416.81;5084376;28;20495;-70
2022/01/23 06:44:13;;;;;;;55.92;18.90;;;;;;;-2.15;68.03;97415.06;5084354;28;20052;-65
2022/01/23 06:46:40;;;;;;;53.60;18.40;;;;;;;-1.96;69.05;97424.19;5082983;28;20146;-62
2022/01/23 06:49:07;;;;;;;203.23;57.60;;;;;;;-2.07;66.75;97362.94;5084711;28;20066;-62
2022/01/23 06:51:34;;;;;;;381.35;97.47;;;;;;;-1.82;67.59;97398.03;5082708;28;20535;-63
2022/01/23 06:54:01;;;;;;;356.95;103.45;;;;;;;-1.51;64.98;97409.47;5082206;28;20126;-63
2022/01/23 06:56:28;;;;;;;212.25;72.93;;;;;;;-1.24;63.77;97403.53;5084201;28;20066;-64
2022/01/23 06:58:55;;;;;;;231.52;81.10;;;;;;;-1.46;64.16;97329.84;5082601;28;20052;-63
2022/01/23 07:01:22;;;;;;;130.57;51.17;;;;;;;-0.77;63.69;97381.81;5083905;28;20063;-63
2022/01/23 07:03:49;;;;;;;81.88;33.78;;;;;;;-0.96;62.26;97327.41;5082786;28;20052;-68
2022/01/23 07:06:16;;;;;;;60.92;21.92;;;;;;;-0.78;62.05;97380.22;5084123;28;20052;-67
2022/01/23 07:09:03;;;;;;;40.78;15.25;;;;;;;-0.65;59.32;97365.91;5083701;28;20055;-64
2022/01/23 07:11:30;;;;;;;31.27;13.05;;;;;;;-0.11;58.24;97390.75;5083920;28;20055;-72
2022/01/23 07:13:56;;;;;;;23.45;9.00;;;;;;;0.09;55.88;97387.75;5084137;28;20103;-70
2022/01/23 07:16:23;;;;;;;22.48;9.02;;;;;;;0.20;56.33;97386.50;5083748;28;20098;-71
2022/01/23 07:18:50;;;;;;;16.08;5.57;;;;;;;0.16;53.72;97385.44;5083531;28;20055;-70
2022/01/23 07:21:17;;;;;;;25.20;9.50;;;;;;;0.33;54.25;97391.22;5079956;28;20050;-63
2022/01/23 07:23:50;;;;;;;13.98;5.45;;;;;;;0.22;53.37;97394.38;5063464;28;20048;-71
2022/01/23 07:26:20;;;;;;;16.90;5.43;;;;;;;0.18;53.78;97382.44;5062311;28;20062;-63
2022/01/23 07:28:47;;;;;;;13.38;5.50;;;;;;;0.30;53.62;97369.97;5063889;28;20422;-63
2022/01/23 07:31:31;;;;;;;17.90;7.32;;;;;;;0.35;52.42;97388.97;5061869;28;20056;-71
2022/01/23 07:34:01;;;;;;;6.68;3.88;;;;;;;0.28;51.74;97366.75;5063842;28;20131;-63
2022/01/23 07:36:28;;;;;;;12.93;5.45;;;;;;;-0.46;51.66;97257.94;5063082;28;20048;-68
2022/01/23 07:38:55;;;;;;;9.07;3.65;;;;;;;-0.06;52.13;97306.28;5063803;28;20048;-63
2022/01/23 07:41:22;;;;;;;8.68;4.40;;;;;;;0.38;52.44;97361.13;5063294;28;20127;-68
2022/01/23 07:43:49;;;;;;;26.67;10.77;;;;;;;0.43;51.98;97358.31;5063598;28;20052;-62
2022/01/23 07:46:19;;;;;;;10.80;4.15;;;;;;;0.33;51.97;97334.00;5063286;28;20055;-63
2022/01/23 07:48:46;;;;;;;10.38;3.33;;;;;;;0.35;51.46;97359.00;5061444;28;20557;-67
2022/01/23 07:51:13;;;;;;;16.05;5.57;;;;;;;0.10;52.82;97315.84;5061380;28;20075;-62
2022/01/23 07:53:39;;;;;;;9.57;3.20;;;;;;;0.35;52.57;97367.19;5062510;28;20143;-64
2022/01/23 07:56:06;;;;;;;8.38;3.50;;;;;;;0.37;52.09;97304.22;5063445;28;20087;-65
2022/01/23 07:58:33;;;;;;;6.15;2.47;;;;;;;0.29;51.58;97221.28;5063440;28;20056;-68
2022/01/23 08:01:00;;;;;;;8.23;2.85;;;;;;;1.26;51.00;97364.47;5062557;28;20056;-69
2022/01/23 08:03:26;;;;;;;8.18;3.03;;;;;;;1.38;51.03;97358.47;5061466;28;20098;-67
2022/01/23 08:05:53;;;;;;;7.68;2.53;;;;;;;1.02;48.83;97357.56;5065160;28;20140;-64
2022/01/23 08:08:20;;;;;;;5.68;2.20;;;;;;;1.09;48.91;97371.63;5067094;28;20052;-63
2022/01/23 08:10:47;;;;;;;7.43;2.80;;;;;;;1.21;49.53;97353.63;5066860;28;20052;-64
2022/01/23 08:13:13;;;;;;;7.60;4.15;;;;;;;1.42;50.39;97365.75;5066830;28;20139;-68
2022/01/23 08:15:40;;;;;;;25.63;10.63;;;;;;;1.78;50.34;97370.47;5065891;28;20135;-64
2022/01/23 08:18:08;;;;;;;22.38;11.13;;;;;;;2.07;50.32;97365.47;5065665;28;20048;-71
2022/01/23 08:20:36;;;;;;;30.60;11.48;;;;;;;2.21;48.55;97368.94;5065100;28;20044;-63
2022/01/23 08:23:04;;;;;;;18.38;8.27;;;;;;;2.02;48.39;97368.28;5083279;28;20062;-68
2022/01/23 08:25:32;;;;;;;12.85;4.88;;;;;;;1.96;47.53;97380.47;5086648;28;20075;-68
2022/01/23 08:27:59;;;;;;;24.73;12.07;;;;;;;1.77;47.46;97347.81;5087020;28;20450;-67
2022/01/23 08:30:26;;;;;;;11.88;5.65;;;;;;;1.73;47.13;97376.84;5085693;28;20163;-68
2022/01/23 08:32:53;;;;;;;14.98;5.90;;;;;;;1.67;46.67;97360.88;5085352;28;20211;-68
2022/01/23 08:35:21;;;;;;;10.82;4.72;;;;;;;1.88;46.71;97454.91;5086234;28;20047;-63
2022/01/23 08:37:48;;;;;;;8.23;3.47;;;;;;;1.80;46.50;97365.50;5087053;28;20134;-63
2022/01/23 08:43:05;;;;;;;9.88;2.92;;;;;;;0.00;50.47;97310.56;5083729;28;20246;-66
2022/01/23 08:45:32;;;;;;;6.57;2.95;;;;;;;0.35;52.95;97320.88;5086832;28;20067;-66
2022/01/23 08:47:59;;;;;;;8.50;3.00;;;;;;;1.11;51.10;97375.66;5086382;28;20044;-69
2022/01/23 08:50:26;;;;;;;7.97;2.50;;;;;;;0.50;49.63;97374.28;5084979;28;20097;-65
2022/01/23 08:52:53;;;;;;;9.57;3.70;;;;;;;1.19;48.87;97372.22;5086509;28;20060;-67
2022/01/23 08:55:20;;;;;;;11.73;4.80;;;;;;;1.39;51.46;97336.34;5085945;28;20546;-68
2022/01/23 08:57:47;;;;;;;7.53;3.22;;;;;;;1.96;47.00;97388.66;5085132;28;20054;-65
2022/01/23 09:00:26;;;;;;;11.13;4.15;;;;;;;1.63;46.66;97376.25;5086171;28;20476;-64
2022/01/23 09:02:55;;;;;;;7.13;3.55;;;;;;;1.73;47.28;97370.56;5086405;28;20056;-64
2022/01/23 09:05:23;;;;;;;6.97;4.35;;;;;;;1.75;47.11;97371.06;5084721;28;20087;-64
2022/01/23 09:07:50;;;;;;;11.88;4.70;;;;;;;1.20;48.11;97367.59;5086204;28;20066;-64
2022/01/23 09:10:25;;;;;;;10.40;4.30;;;;;;;0.67;48.35;97290.06;5085765;28;20048;-64
2022/01/23 09:15:23;;;;;;;15.02;7.40;;;;;;;0.74;49.42;97347.72;5085639;28;20055;-64
2022/01/23 09:17:50;;;;;;;21.90;8.35;;;;;;;0.98;50.08;97370.19;5086152;28;20079;-64
2022/01/23 09:20:16;;;;;;;9.98;4.05;;;;;;;0.88;48.35;97363.00;5084611;28;20052;-64
2022/01/23 09:22:43;;;;;;;18.05;8.68;;;;;;;1.11;50.51;97356.56;5081075;28;20045;-68
2022/01/23 09:25:15;;;;;;;20.10;9.15;;;;;;;1.28;49.21;97354.03;5064278;28;20059;-68
2022/01/23 09:27:42;;;;;;;19.48;7.60;;;;;;;1.01;49.55;97373.09;5063867;28;20063;-69
2022/01/23 09:30:17;;;;;;;12.98;6.97;;;;;;;0.50;49.06;97282.47;5065261;28;20108;-67
2022/01/23 09:32:45;;;;;;;14.68;7.28;;;;;;;0.65;50.25;97284.13;5064456;28;20477;-68
2022/01/23 09:35:12;;;;;;;12.68;5.57;;;;;;;0.98;50.88;97335.53;5063848;28;20215;-63
2022/01/23 09:37:40;;;;;;;12.63;4.72;;;;;;;1.01;50.01;97332.19;5065685;28;20052;-64
2022/01/23 09:40:08;;;;;;;57.08;21.02;;;;;;;0.90;49.27;97287.13;5065207;28;20132;-65
2022/01/23 09:42:43;;;;;;;10.57;5.35;;;;;;;1.23;48.62;97335.03;5065683;28;20673;-65
2022/01/23 09:45:12;;;;;;;22.52;6.15;;;;;;;1.35;48.29;97321.69;5064569;28;20052;-65
2022/01/23 09:47:40;;;;;;;9.02;4.15;;;;;;;1.09;50.00;97334.22;5066010;28;20049;-63
2022/01/23 09:50:10;;;;;;;19.73;6.38;;;;;;;1.02;48.91;97331.09;5065188;28;20058;-69
2022/01/23 09:52:38;;;;;;;9.00;4.32;;;;;;;0.82;49.78;97311.59;5063779;28;20078;-69
2022/01/23 09:55:09;;;;;;;14.75;5.60;;;;;;;1.02;47.75;97301.09;5065040;28;20055;-64
2022/01/23 09:57:49;;;;;;;16.52;7.95;;;;;;;1.52;48.39;97354.63;5064754;28;20048;-70
2022/01/23 10:00:21;;;;;;;9.45;4.63;;;;;;;1.50;47.17;97302.25;5064815;28;20049;-70
2022/01/23 10:02:49;;;;;;;5.77;3.03;;;;;;;1.97;46.36;97338.34;5065335;28;20106;-71
2022/01/23 10:05:17;;;;;;;14.55;6.47;;;;;;;1.41;45.85;97178.56;5063647;28;20133;-70
2022/01/23 10:07:45;;;;;;;12.95;4.03;;;;;;;2.75;45.82;97322.22;5064984;28;20063;-63
2022/01/23 10:10:17;;;;;;;7.13;2.45;;;;;;;3.13;42.83;97317.88;5063560;28;20091;-71
2022/01/23 10:12:54;;;;;;;5.65;2.60;;;;;;;3.38;43.09;97310.91;5064585;28;20163;-64
2022/01/23 10:15:25;;;;;;;6.68;2.80;;;;;;;3.22;42.46;97233.91;5064551;28;20052;-63
2022/01/23 10:17:53;;;;;;;15.13;6.18;;;;;;;3.90;44.16;97272.34;5063500;28;20424;-63
2022/01/23 10:20:20;;;;;;;18.05;6.78;;;;;;;3.73;45.74;97233.94;5064855;28;20493;-70
2022/01/23 10:22:50;;;;;;;13.73;7.32;;;;;;;3.99;45.47;97308.75;5063186;28;20049;-63
2022/01/23 10:25:20;;;;;;;17.20;7.10;;;;;;;3.94;48.16;97305.34;5063622;28;20045;-69
2022/01/23 10:28:04;;;;;;;23.40;9.60;;;;;;;4.09;45.58;97302.16;5064247;28;20427;-67
2022/01/23 10:30:37;;;;;;;13.90;6.95;;;;;;;3.86;44.59;97298.75;5064417;28;20055;-68
2022/01/23 10:33:10;;;;;;;14.38;5.53;;;;;;;3.91;45.47;97295.84;5064565;28;20458;-62
2022/01/23 10:35:54;;;;;;;17.25;7.38;;;;;;;3.71;46.03;97288.28;5064392;28;20048;-70
2022/01/23 10:38:23;;;;;;;12.40;5.10;;;;;;;3.63;46.21;97286.31;5064335;28;20058;-62
2022/01/23 10:41:05;;;;;;;15.93;6.70;;;;;;;3.80;46.88;97289.06;5064438;28;20118;-70
2022/01/23 10:49:03;;;;;;;11.07;3.95;;;;;;;2.37;50.04;97282.75;5064454;28;20431;-64
2022/01/23 10:51:36;;;;;;;12.18;4.68;;;;;;;2.65;50.14;97289.66;5064407;28;20059;-70
2022/01/23 10:54:14;;;;;;;9.75;4.25;;;;;;;2.15;51.50;97258.16;5062450;28;20059;-65
2022/01/23 10:57:08;;;;;;;10.45;4.40;;;;;;;2.51;51.36;97267.06;5063697;28;20058;-67
2022/01/23 10:59:43;;;;;;;13.85;5.20;;;;;;;2.43;51.59;97265.09;5062653;28;20048;-68
2022/01/23 11:02:13;;;;;;;5.50;2.58;;;;;;;1.79;51.75;97216.47;5064118;28;20053;-68
2022/01/23 11:04:54;;;;;;;8.13;3.63;;;;;;;2.54;53.13;97304.72;5062520;28;20051;-62
2022/01/23 11:07:21;;;;;;;15.95;5.60;;;;;;;2.46;52.12;97287.16;5064353;28;20415;-67
2022/01/23 11:09:59;;;;;;;17.20;5.87;;;;;;;2.81;53.00;97301.81;5063362;28;20063;-67
2022/01/23 11:17:22;;;;;;;;;;;;;;;2.78;49.73;97294.25;5062329;28;20074;-69
2022/01/23 11:18:14;;;;;;;7.45;2.63;;;;;;;2.89;46.35;97295.59;5064001;28;20175;-68
2022/01/23 11:20:43;;;;;;;8.27;2.67;;;;;;;3.26;46.29;97284.13;5062454;28;20056;-64
2022/01/23 11:23:21;;;;;;;27.98;11.75;;;;;;;3.51;46.80;97274.38;5064078;28;20056;-64
2022/01/23 11:25:51;;;;;;;11.30;4.07;;;;;;;3.50;45.21;97281.78;5063396;28;20092;-64
2022/01/23 11:28:28;;;;;;;9.43;3.53;;;;;;;2.78;46.05;97340.75;5062191;28;20067;-68
2022/01/23 11:30:56;;;;;;;8.90;3.67;;;;;;;2.26;47.69;97275.91;5063458;28;20169;-68
2022/01/23 11:33:23;;;;;;;8.20;4.53;;;;;;;2.62;47.03;97241.06;5063523;28;20336;-69
2022/01/23 11:35:49;;;;;;;11.27;4.95;;;;;;;2.96;47.57;97246.69;5063465;28;20086;-69
2022/01/23 11:38:20;;;;;;;9.75;4.25;;;;;;;2.53;46.36;97243.75;5063755;28;20048;-69
2022/01/23 11:54:44;;;;;;;7.97;3.70;;;;;;;1.84;47.76;97268.19;5063506;28;20439;-72
2022/01/23 11:57:45;;;;;;;9.57;3.85;;;;;;;2.36;48.99;97264.72;5063585;28;20056;-63
2022/01/23 12:00:33;;;;;;;7.78;3.55;;;;;;;2.84;48.54;97265.63;5061927;28;21062;-73
2022/01/23 12:03:13;;;;;;;7.38;4.00;;;;;;;2.91;47.79;97271.44;5062993;28;20066;-71
2022/01/23 12:06:12;;;;;;;25.30;9.52;;;;;;;2.74;49.84;97255.78;5061425;28;20064;-64
2022/01/23 12:08:39;;;;;;;21.13;8.18;;;;;;;2.80;50.79;97254.50;5061677;28;20056;-63
2022/01/23 12:11:25;;;;;;;16.98;6.68;;;;;;;2.63;48.07;97259.91;5062953;28;20059;-63
2022/01/23 12:17:03;;;;;;;5.97;2.60;;;;;;;2.01;42.55;97257.44;5063116;28;20072;-62
2022/01/23 12:19:33;;;;;;;7.45;2.85;;;;;;;1.66;43.68;97239.16;5061733;28;20052;-71
2022/01/23 12:22:25;;;;;;;5.35;2.63;;;;;;;1.50;43.68;97255.84;5064323;28;20052;-64
2022/01/23 12:24:56;;;;;;;7.00;2.13;;;;;;;0.25;44.86;97127.69;5062009;28;20082;-64
2022/01/23 12:27:27;;;;;;;8.50;3.20;;;;;;;1.25;46.28;97259.16;5062732;28;20142;-71
2022/01/23 12:30:10;;;;;;;4.20;1.98;;;;;;;1.07;44.90;97232.00;5062120;28;20055;-70
2022/01/23 12:32:37;;;;;;;4.72;1.98;;;;;;;0.89;44.77;97247.38;5063672;28;20056;-72
2022/01/23 12:35:07;;;;;;;6.30;2.30;;;;;;;-1.76;46.04;96867.56;5063111;28;20524;-69
2022/01/23 12:38:08;;;;;;;5.35;2.00;;;;;;;0.43;46.58;97276.59;5062568;28;20055;-63
2022/01/23 12:40:40;;;;;;;5.95;2.10;;;;;;;0.24;46.39;97283.22;5040738;28;20076;-71
2022/01/23 12:43:21;;;;;;;6.75;2.00;;;;;;;0.46;46.57;97270.53;5061547;28;20055;-61
2022/01/23 12:46:05;;;;;;;4.82;2.10;;;;;;;0.00;48.03;97250.69;5063033;28;20060;-62
2022/01/23 12:48:36;;;;;;;3.50;1.90;;;;;;;0.02;48.26;97275.66;5061558;28;20044;-68
2022/01/23 12:51:12;;;;;;;4.97;1.77;;;;;;;0.08;45.62;97274.47;5063783;28;20690;-70
2022/01/23 12:53:43;;;;;;;6.07;2.15;;;;;;;0.21;48.06;97273.72;5065964;28;20056;-63
2022/01/23 12:56:12;;;;;;;4.55;1.92;;;;;;;0.49;47.53;97286.28;5064706;28;20102;-62
2022/01/23 12:58:40;;;;;;;4.25;1.88;;;;;;;0.46;45.25;97221.50;5066422;28;20049;-69
2022/01/23 13:01:15;;;;;;;7.97;2.35;;;;;;;0.47;45.40;97261.28;5065481;28;20562;-63
2022/01/23 13:03:49;;;;;;;4.45;2.28;;;;;;;0.24;48.33;97245.88;5066107;28;20048;-68
2022/01/23 13:06:16;;;;;;;9.35;2.60;;;;;;;-0.19;47.67;97154.63;5064845;28;20056;-62
2022/01/23 13:08:52;;;;;;;5.55;2.28;;;;;;;0.52;47.85;97228.47;5065961;28;20514;-62
2022/01/23 13:11:49;;;;;;;6.03;2.92;;;;;;;0.50;47.45;97268.84;5065787;28;20061;-70
2022/01/23 13:14:06;;;;;;;5.40;2.13;;;;;;;0.62;46.95;97285.50;5065851;28;20052;-69
2022/01/23 13:16:48;;;;;;;6.65;2.20;;;;;;;0.53;48.38;97306.41;5065931;28;20628;-68
2022/01/23 13:28:38;;;;;;;7.22;2.70;;;;;;;0.52;50.05;97302.03;5042499;28;20068;-63
2022/01/23 13:30:48;;;;;;;7.85;2.50;;;;;;;0.64;48.53;97247.88;5042591;28;20056;-62
2022/01/23 13:33:21;;;;;;;4.50;2.38;;;;;;;0.94;48.75;97250.00;5059351;28;20598;-71
2022/01/23 13:35:52;;;;;;;4.90;2.10;;;;;;;1.24;48.13;97297.66;5065595;28;20066;-64
2022/01/23 13:38:23;;;;;;;4.30;2.25;;;;;;;1.21;47.27;97309.97;5065629;28;20875;-73
2022/01/23 13:40:59;;;;;;;7.20;2.80;;;;;;;1.12;48.12;97309.06;5064068;28;20411;-62
2022/01/23 13:51:45;;;;;;;8.57;3.35;;;;;;;0.72;48.03;97290.78;5065493;28;20045;-63
2022/01/23 13:59:59;;;;;;;9.48;4.20;;;;;;;1.08;47.75;97327.16;5065491;28;20052;-69
2022/01/23 14:02:32;;;;;;;6.75;2.75;;;;;;;0.54;47.88;97299.81;5065230;28;20059;-65
2022/01/23 14:05:11;;;;;;;5.22;2.55;;;;;;;0.77;47.59;97312.50;5065412;28;20048;-65
2022/01/23 14:07:45;;;;;;;7.68;3.10;;;;;;;0.45;49.37;97244.41;5064949;28;20052;-62
2022/01/23 14:10:17;;;;;;;7.97;2.30;;;;;;;1.05;47.23;97311.41;5065084;28;20518;-71
2022/01/23 14:12:50;;;;;;;6.60;2.38;;;;;;;0.55;47.65;97278.84;5065088;28;20074;-69
2022/01/23 14:15:25;;;;;;;7.32;2.53;;;;;;;0.78;48.96;97327.72;5065369;28;20048;-70
2022/01/23 14:18:10;;;;;;;;;;;;;;;0.61;50.47;97395.63;5064274;28;20074;-70
2022/01/23 14:20:44;;;;;;;12.63;3.25;;;;;;;0.30;50.84;97318.22;5064344;28;19967;-63
2022/01/23 14:23:14;;;;;;;4.65;2.33;;;;;;;-0.38;50.18;97246.38;5064619;28;20044;-70
2022/01/23 14:25:52;;;;;;;4.80;1.95;;;;;;;0.10;51.14;97318.56;5062917;28;20141;-70
2022/01/23 14:28:22;;;;;;;5.47;2.67;;;;;;;-0.17;52.80;97300.19;5064485;28;20059;-63
2022/01/23 14:30:55;;;;;;;8.52;2.72;;;;;;;-0.16;52.91;97292.84;5063002;28;20051;-70
2022/01/23 14:33:34;;;;;;;7.10;2.22;;;;;;;-0.23;50.95;97274.16;5064483;28;20491;-69
2022/01/23 14:36:24;;;;;;;9.10;2.90;;;;;;;-0.29;52.44;97299.03;5064136;28;20044;-70
2022/01/23 14:38:58;;;;;;;7.15;2.60;;;;;;;-0.77;54.30;97316.56;5065056;28;20442;-69
2022/01/23 14:41:28;;;;;;;10.27;4.35;;;;;;;-0.76;53.77;97280.13;5064245;28;20561;-71
2022/01/23 14:43:56;;;;;;;6.97;3.40;;;;;;;-0.48;54.06;97326.25;5064408;28;20048;-68
2022/01/23 14:46:23;;;;;;;7.38;2.28;;;;;;;-0.64;51.47;97319.38;5064297;28;20118;-68
2022/01/23 14:48:57;;;;;;;4.75;2.00;;;;;;;-3.56;53.20;96905.06;5064335;28;20170;-64
2022/01/23 14:51:26;;;;;;;4.22;1.73;;;;;;;-1.06;53.18;97269.63;5062854;28;20052;-71
2022/01/23 14:53:54;;;;;;;26.08;10.35;;;;;;;-2.69;52.45;96991.44;5064247;28;20563;-64
2022/01/23 14:56:21;;;;;;;5.70;2.78;;;;;;;-0.45;53.16;97352.88;5062930;28;20049;-69
2022/01/23 14:58:49;;;;;;;7.05;2.25;;;;;;;-0.99;53.25;97324.44;5064482;28;20047;-69
2022/01/23 15:01:17;;;;;;;4.85;1.95;;;;;;;-0.68;54.63;97369.22;5063650;28;20110;-69